Stations météo

réclame
Mon MeteoGroup
Buzenol, Belgique (6484): Température de l'air & dewpoint: 12.08.2019 05:00:00 - 18.08.2019 05:00:00 (CEST)Buzenol, Belgique (6484): Vitesse du vent & gusts: 12.08.2019 05:00:00 - 18.08.2019 05:00:00 (CEST)Buzenol, Belgique (6484): Direction du vent: 12.08.2019 05:00:00 - 18.08.2019 05:00:00 (CEST)Buzenol, Belgique (6484): reduced air pressure: 12.08.2019 05:00:00 - 18.08.2019 05:00:00 (CEST)Buzenol, Belgique (6484): Ensoleillement: 12.08.2019 05:00:00 - 18.08.2019 05:00:00 (CEST)Buzenol, Belgique (6484): Quantités de précipitations: 12.08.2019 05:00:00 - 18.08.2019 05:00:00 (CEST)
Date & Time tt [°C] td [°C] ff [km/h] ff [knt] fx [km/h] fx [knt] dd ppp [hPa] sd [min] rr [mm]
18.08.2019 05:00:00 - - - - - - - - - -
18.08.2019 04:00:00 - - - - - - - - - -
18.08.2019 03:00:00 - - - - - - - - - -
18.08.2019 02:00:00 - - - - - - - - - -
18.08.2019 01:00:00 - - - - - - - - - -
18.08.2019 00:00:00 - - - - - - - - - -
17.08.2019 23:00:00 - - - - - - - - - -
17.08.2019 22:00:00 - - - - - - - - - -
17.08.2019 21:00:00 - - - - - - - - - -
17.08.2019 20:00:00 - - - - - - - - - -
17.08.2019 19:00:00 - - - - - - - - - -
17.08.2019 18:00:00 - - - - - - - - - -
17.08.2019 17:00:00 - - - - - - - - - -
17.08.2019 16:00:00 - - - - - - - - - -
17.08.2019 15:00:00 - - - - - - - - - -
17.08.2019 14:00:00 - - - - - - - - - -
17.08.2019 13:00:00 - - - - - - - - - -
17.08.2019 12:00:00 - - - - - - - - - -
17.08.2019 11:00:00 - - - - - - - - - -
17.08.2019 10:00:00 - - - - - - - - - -
17.08.2019 09:00:00 - - - - - - - - - -
17.08.2019 08:00:00 - - - - - - - - - -
17.08.2019 07:00:00 - - - - - - - - - -
17.08.2019 06:00:00 - - - - - - - - - -
17.08.2019 05:00:00 - - - - - - - - - -
17.08.2019 04:00:00 - - - - - - - - - -
17.08.2019 03:00:00 - - - - - - - - - -
17.08.2019 02:00:00 - - - - - - - - - -
17.08.2019 01:00:00 - - - - - - - - - -
17.08.2019 00:00:00 - - - - - - - - - -
16.08.2019 23:00:00 - - - - - - - - - -
16.08.2019 22:00:00 - - - - - - - - - -
16.08.2019 21:00:00 - - - - - - - - - -
16.08.2019 20:00:00 - - - - - - - - 0 -
16.08.2019 19:00:00 20,4 11,4 7 4 14 7 SW 1014,3 37 0,0
16.08.2019 18:00:00 20,7 11,1 9 5 17 9 WSW 1015,2 53 0,0
16.08.2019 17:00:00 21,0 11,0 9 5 18 10 WNW 1015,8 40 0,0
16.08.2019 16:00:00 20,3 10,7 14 8 24 13 W 1016,6 40 0,0
16.08.2019 15:00:00 19,5 11,1 9 5 23 12 WSW 1017,3 44 0,0
16.08.2019 14:00:00 18,2 11,1 11 6 25 13 W 1018,2 33 0,0
16.08.2019 13:00:00 17,6 11,6 15 8 23 12 WSW 1019,0 34 0,0
16.08.2019 12:00:00 15,5 11,8 13 7 21 12 W 1019,6 27 0,0
16.08.2019 11:00:00 14,4 11,9 9 5 16 9 WSW 1019,9 23 0,0
16.08.2019 10:00:00 13,5 11,7 9 5 16 8 WSW 1020,2 0 0,0
16.08.2019 09:00:00 12,5 11,6 5 3 8 4 SW 1020,4 0 0,0
16.08.2019 08:00:00 10,9 10,4 0 0 6 3 N 1020,5 0 0,0
16.08.2019 07:00:00 9,6 9,1 4 2 10 5 NNE 1020,7 0 0,0
16.08.2019 06:00:00 8,5 7,9 4 2 8 4 NE 1020,5 0 0,0
16.08.2019 05:00:00 8,3 7,6 4 2 9 5 NNW 1020,9 0 0,0
16.08.2019 04:00:00 8,7 8,1 4 2 8 4 ENE 1020,7 0 0,0
16.08.2019 03:00:00 9,5 8,9 4 2 8 4 S 1020,4 0 0,0
16.08.2019 02:00:00 10,3 9,5 0 0 8 4 N 1020,1 0 0,0
16.08.2019 01:00:00 11,4 10,3 5 3 10 6 NW 1020,0 0 0,0
16.08.2019 00:00:00 12,6 10,8 5 3 14 8 NNW 1019,5 0 0,0
15.08.2019 23:00:00 13,0 10,7 6 3 16 9 NNE 1019,1 0 0,0
15.08.2019 22:00:00 14,7 11,8 6 3 13 7 NNW 1018,1 0 0,0
15.08.2019 21:00:00 15,7 13,7 8 5 16 8 W 1017,1 3 0,0
15.08.2019 20:00:00 16,1 13,9 11 6 22 12 W 1016,3 37 0,0
15.08.2019 19:00:00 16,2 14,1 9 5 39 21 W 1015,8 12 0,9
15.08.2019 18:00:00 18,8 13,1 13 7 27 15 WNW 1014,8 40 0,0
15.08.2019 17:00:00 17,2 13,0 13 7 25 13 WNW 1015,1 13 0,0
15.08.2019 16:00:00 15,8 12,9 13 7 42 23 NNW 1015,0 1 0,1
15.08.2019 15:00:00 - - - - - - - - - -
15.08.2019 14:00:00 17,8 14,3 14 8 29 16 WNW 1014,0 13 0,0
15.08.2019 13:00:00 17,2 14,8 13 7 27 15 WNW 1013,6 7 0,0
15.08.2019 12:00:00 15,7 14,2 10 5 32 17 NW 1013,6 4 1,0
15.08.2019 11:00:00 16,4 14,8 13 7 30 16 W 1013,0 3 0,0
15.08.2019 10:00:00 15,3 14,3 12 7 23 12 W 1013,1 0 0,5
15.08.2019 09:00:00 14,9 14,1 9 5 16 9 W 1012,8 0 3,5
15.08.2019 08:00:00 14,5 13,8 10 5 24 13 W 1012,8 0 1,0
15.08.2019 07:00:00 14,3 13,6 14 8 26 14 W 1012,5 0 0,9
15.08.2019 06:00:00 14,4 13,5 14 8 27 14 WSW 1012,5 0 0,3
15.08.2019 05:00:00 14,4 13,2 13 7 29 16 W 1013,0 0 0,1
15.08.2019 04:00:00 15,6 12,2 12 6 21 11 W 1013,4 0 0,0
15.08.2019 03:00:00 15,6 12,1 8 4 11 6 W 1013,6 0 0,0
15.08.2019 02:00:00 16,0 12,1 7 4 17 9 W 1014,2 0 0,0
15.08.2019 01:00:00 15,8 12,1 9 5 15 8 NW 1014,5 0 0,1
15.08.2019 00:00:00 15,3 13,0 4 2 4 2 SE 1014,4 0 0,0
14.08.2019 23:00:00 15,7 12,8 0 0 4 2 N 1014,7 0 0,0
14.08.2019 22:00:00 15,8 12,7 4 2 5 3 ENE 1015,2 0 0,0
14.08.2019 21:00:00 17,3 12,2 0 0 14 8 N 1014,8 5 0,0
14.08.2019 20:00:00 20,0 10,5 11 6 18 10 WSW 1014,8 8 0,0
14.08.2019 19:00:00 20,8 10,2 11 6 18 10 WSW 1015,3 12 0,0
14.08.2019 18:00:00 20,9 9,5 13 7 21 11 WSW 1016,0 36 0,0
14.08.2019 17:00:00 20,7 9,6 17 9 26 14 W 1016,9 52 0,0
14.08.2019 16:00:00 20,5 10,3 11 6 24 13 WSW 1017,4 48 0,0
14.08.2019 15:00:00 19,4 10,8 11 6 26 14 W 1018,0 28 0,0
14.08.2019 14:00:00 17,5 11,0 14 8 23 12 SW 1019,0 24 0,0
14.08.2019 13:00:00 16,9 11,3 6 4 16 9 WSW 1019,6 25 0,0
14.08.2019 12:00:00 14,9 11,6 8 4 15 8 W 1020,4 0 0,0
14.08.2019 11:00:00 14,3 11,3 10 5 13 7 WSW 1020,6 0 0,0
14.08.2019 10:00:00 13,6 11,2 6 3 10 6 SW 1020,5 6 0,0
14.08.2019 09:00:00 12,2 10,7 4 2 7 4 SSW 1020,8 0 0,0
14.08.2019 08:00:00 11,6 10,6 4 2 4 2 WSW 1020,7 0 0,0
14.08.2019 07:00:00 11,0 10,2 4 2 4 2 WSW 1020,7 0 0,0
14.08.2019 06:00:00 10,6 9,7 0 0 5 3 N 1020,6 0 0,0
14.08.2019 05:00:00 10,3 9,3 4 2 4 2 ENE 1020,5 0 0,0
14.08.2019 04:00:00 10,9 9,8 4 2 4 2 E 1020,8 0 0,0
14.08.2019 03:00:00 10,9 9,7 4 2 8 5 WNW 1020,8 0 0,0
14.08.2019 02:00:00 11,2 9,4 4 2 7 4 NW 1020,7 0 0,0
14.08.2019 01:00:00 12,6 9,7 4 2 14 8 W 1020,4 0 0,0
14.08.2019 00:00:00 13,1 9,5 6 3 13 7 W 1020,5 0 0,0
13.08.2019 23:00:00 13,1 9,5 6 3 13 7 WNW 1020,5 0 0,0
13.08.2019 22:00:00 13,9 9,9 7 4 15 8 WNW 1020,4 0 0,0
13.08.2019 21:00:00 14,6 9,2 5 3 25 14 NNW 1020,1 0 0,0
13.08.2019 20:00:00 16,2 9,1 7 4 18 10 N 1019,3 0 0,0
13.08.2019 19:00:00 17,5 7,4 8 4 23 12 NW 1018,7 3 0,0
13.08.2019 18:00:00 18,0 8,2 6 3 18 10 N 1018,5 10 0,0
13.08.2019 17:00:00 18,2 7,5 9 5 23 13 W 1018,8 31 0,0
13.08.2019 16:00:00 17,7 7,6 8 5 23 13 NW 1019,1 35 0,0
13.08.2019 15:00:00 17,8 7,8 8 5 30 16 NW 1019,3 50 0,0
13.08.2019 14:00:00 16,4 7,8 11 6 21 11 NW 1020,2 32 0,0
13.08.2019 13:00:00 15,8 8,9 12 6 29 15 W 1020,9 18 0,0
13.08.2019 12:00:00 15,0 9,6 11 6 22 12 W 1021,0 48 0,0
13.08.2019 11:00:00 14,5 10,1 10 6 20 11 W 1021,0 42 0,0
13.08.2019 10:00:00 13,3 10,1 11 6 20 11 W 1021,0 40 0,0
13.08.2019 09:00:00 12,0 10,0 9 5 21 11 WNW 1020,9 21 0,0
13.08.2019 08:00:00 11,3 10,0 7 4 10 6 NW 1020,5 4 0,0
13.08.2019 07:00:00 10,5 9,4 4 2 16 9 NNW 1020,1 0 0,0
13.08.2019 06:00:00 11,5 10,2 7 4 21 11 NW 1019,5 0 0,0
13.08.2019 05:00:00 11,5 10,3 9 5 16 9 WNW 1019,2 0 0,0
13.08.2019 04:00:00 11,7 10,5 8 5 18 10 WNW 1019,3 0 0,0
13.08.2019 03:00:00 11,2 10,0 5 3 14 7 W 1019,0 0 0,0
13.08.2019 02:00:00 11,5 10,4 7 4 11 6 W 1018,9 0 0,0
13.08.2019 01:00:00 11,5 10,5 7 4 11 6 W 1018,7 0 0,1
13.08.2019 00:00:00 11,2 10,5 0 0 6 3 N 1018,6 0 0,0
12.08.2019 23:00:00 11,5 10,6 4 2 8 5 NNW 1018,2 0 0,0
12.08.2019 22:00:00 12,8 11,5 4 2 12 7 NNW 1017,7 0 0,0
12.08.2019 21:00:00 14,8 11,3 9 5 35 19 NNW 1016,9 2 0,0
12.08.2019 20:00:00 16,0 14,5 4 2 9 5 ENE 1015,8 15 0,0
12.08.2019 19:00:00 16,0 13,5 6 4 17 9 S 1015,5 28 0,2
12.08.2019 18:00:00 15,0 12,8 10 5 19 11 NE 1016,1 18 0,0
12.08.2019 17:00:00 15,9 13,9 9 5 25 13 S 1015,9 26 0,4
12.08.2019 16:00:00 14,9 12,8 13 7 27 15 SSW 1016,5 3 9,0
12.08.2019 15:00:00 16,8 13,8 15 8 23 12 S 1016,1 41 0,0
12.08.2019 14:00:00 14,0 12,6 7 4 41 22 N 1016,6 1 15,9
12.08.2019 13:00:00 18,2 12,0 10 5 22 12 W 1016,2 2 0,0
12.08.2019 12:00:00 18,9 11,7 13 7 24 13 W 1016,8 57 0,0
12.08.2019 11:00:00 17,5 12,6 11 6 18 10 WSW 1017,1 60 0,0
12.08.2019 10:00:00 15,4 12,3 8 4 14 7 SW 1017,4 60 0,0
12.08.2019 09:00:00 14,0 12,5 4 2 6 3 SSE 1017,3 60 0,0
12.08.2019 08:00:00 11,4 10,9 0 0 9 5 N 1017,9 38 0,0
12.08.2019 07:00:00 9,1 8,3 5 3 7 4 ENE 1018,5 0 0,0
12.08.2019 06:00:00 10,4 9,7 0 0 4 2 N 1018,4 0 0,0
12.08.2019 05:00:00 11,3 10,5 0 0 8 4 N 1018,2 0 0,0

tt = Température de l'air
td = dewpoint
ff = Vitesse du vent
fx = gusts
dd = Direction du vent
ppp = reduced air pressure
sd = Ensoleillement
rr = Quantités de précipitations

stations d'obs. à proximité